sensor_id;sensor_type;location;lat;lon;timestamp;temperature;humidity
10828;DHT22;5467;59.334;13.512;2023-03-12T00:00:49;-4.50;99.90
10828;DHT22;5467;59.334;13.512;2023-03-12T00:03:16;-4.50;99.90
10828;DHT22;5467;59.334;13.512;2023-03-12T00:05:43;-4.50;99.90
10828;DHT22;5467;59.334;13.512;2023-03-12T00:08:12;-4.50;99.90
10828;DHT22;5467;59.334;13.512;2023-03-12T00:10:41;-4.50;99.90
10828;DHT22;5467;59.334;13.512;2023-03-12T00:13:08;-4.50;99.90
10828;DHT22;5467;59.334;13.512;2023-03-12T00:15:36;-4.50;99.90
10828;DHT22;5467;59.334;13.512;2023-03-12T00:18:04;-4.50;99.90
10828;DHT22;5467;59.334;13.512;2023-03-12T00:20:32;-4.60;99.90
10828;DHT22;5467;59.334;13.512;2023-03-12T00:22:59;-4.60;99.90
10828;DHT22;5467;59.334;13.512;2023-03-12T00:25:26;-4.50;99.90
10828;DHT22;5467;59.334;13.512;2023-03-12T00:27:55;-4.60;99.90
10828;DHT22;5467;59.334;13.512;2023-03-12T00:30:23;-4.60;99.90
10828;DHT22;5467;59.334;13.512;2023-03-12T00:32:52;-4.50;99.90
10828;DHT22;5467;59.334;13.512;2023-03-12T00:35:19;-4.50;99.90
10828;DHT22;5467;59.334;13.512;2023-03-12T00:37:47;-4.40;99.90
10828;DHT22;5467;59.334;13.512;2023-03-12T00:40:14;-4.50;99.90
10828;DHT22;5467;59.334;13.512;2023-03-12T00:42:41;-4.50;99.90
10828;DHT22;5467;59.334;13.512;2023-03-12T00:45:10;-4.50;99.90
10828;DHT22;5467;59.334;13.512;2023-03-12T00:47:37;-4.50;99.90
10828;DHT22;5467;59.334;13.512;2023-03-12T00:50:05;-4.60;99.90
10828;DHT22;5467;59.334;13.512;2023-03-12T00:52:32;-4.60;99.90
10828;DHT22;5467;59.334;13.512;2023-03-12T00:54:59;-4.50;99.90
10828;DHT22;5467;59.334;13.512;2023-03-12T00:57:26;-4.60;99.90
10828;DHT22;5467;59.334;13.512;2023-03-12T00:59:53;-4.70;99.90
10828;DHT22;5467;59.334;13.512;2023-03-12T01:02:21;-4.70;99.90
10828;DHT22;5467;59.334;13.512;2023-03-12T01:04:49;-4.70;99.90
10828;DHT22;5467;59.334;13.512;2023-03-12T01:07:16;-4.70;99.90
10828;DHT22;5467;59.334;13.512;2023-03-12T01:09:43;-4.60;99.90
10828;DHT22;5467;59.334;13.512;2023-03-12T01:12:10;-4.70;99.90
10828;DHT22;5467;59.334;13.512;2023-03-12T01:14:37;-4.70;99.90
10828;DHT22;5467;59.334;13.512;2023-03-12T01:17:04;-4.70;99.90
10828;DHT22;5467;59.334;13.512;2023-03-12T01:19:33;-4.80;99.90
10828;DHT22;5467;59.334;13.512;2023-03-12T01:22:01;-4.80;99.90
10828;DHT22;5467;59.334;13.512;2023-03-12T01:24:29;-4.80;99.90
10828;DHT22;5467;59.334;13.512;2023-03-12T01:26:56;-4.80;99.90
10828;DHT22;5467;59.334;13.512;2023-03-12T01:29:23;-4.80;99.90
10828;DHT22;5467;59.334;13.512;2023-03-12T01:31:50;-4.90;99.90
10828;DHT22;5467;59.334;13.512;2023-03-12T01:34:18;-4.90;99.90
10828;DHT22;5467;59.334;13.512;2023-03-12T01:36:46;-4.90;99.90
10828;DHT22;5467;59.334;13.512;2023-03-12T01:39:13;-4.90;99.90
10828;DHT22;5467;59.334;13.512;2023-03-12T01:41:40;-4.80;99.90
10828;DHT22;5467;59.334;13.512;2023-03-12T01:44:12;-4.80;99.90
10828;DHT22;5467;59.334;13.512;2023-03-12T01:46:40;-4.80;99.90
10828;DHT22;5467;59.334;13.512;2023-03-12T01:49:10;-4.90;99.90
10828;DHT22;5467;59.334;13.512;2023-03-12T01:51:40;-4.90;99.90
10828;DHT22;5467;59.334;13.512;2023-03-12T01:54:12;-4.90;99.90
10828;DHT22;5467;59.334;13.512;2023-03-12T01:56:40;-4.90;99.90
10828;DHT22;5467;59.334;13.512;2023-03-12T01:59:13;-4.90;99.90
10828;DHT22;5467;59.334;13.512;2023-03-12T02:01:43;-5.00;99.90
10828;DHT22;5467;59.334;13.512;2023-03-12T02:04:11;-5.00;99.90
10828;DHT22;5467;59.334;13.512;2023-03-12T02:06:42;-5.00;99.90
10828;DHT22;5467;59.334;13.512;2023-03-12T02:09:12;-5.10;99.90
10828;DHT22;5467;59.334;13.512;2023-03-12T02:11:39;-5.10;99.90
10828;DHT22;5467;59.334;13.512;2023-03-12T02:14:07;-5.20;99.90
10828;DHT22;5467;59.334;13.512;2023-03-12T02:16:34;-5.20;99.90
10828;DHT22;5467;59.334;13.512;2023-03-12T02:19:01;-5.20;99.90
10828;DHT22;5467;59.334;13.512;2023-03-12T02:21:32;-5.30;99.90
10828;DHT22;5467;59.334;13.512;2023-03-12T02:24:04;-5.20;99.90
10828;DHT22;5467;59.334;13.512;2023-03-12T02:26:35;-5.20;99.90
10828;DHT22;5467;59.334;13.512;2023-03-12T02:29:03;-5.20;99.90
10828;DHT22;5467;59.334;13.512;2023-03-12T02:31:42;-5.10;99.90
10828;DHT22;5467;59.334;13.512;2023-03-12T02:34:10;-5.20;99.90
10828;DHT22;5467;59.334;13.512;2023-03-12T02:36:37;-5.20;99.90
10828;DHT22;5467;59.334;13.512;2023-03-12T02:39:04;-5.30;99.90
10828;DHT22;5467;59.334;13.512;2023-03-12T02:41:35;-5.40;99.90
10828;DHT22;5467;59.334;13.512;2023-03-12T02:44:07;-5.40;99.90
10828;DHT22;5467;59.334;13.512;2023-03-12T02:46:39;-5.50;99.90
10828;DHT22;5467;59.334;13.512;2023-03-12T02:49:06;-5.60;99.90
10828;DHT22;5467;59.334;13.512;2023-03-12T02:51:36;-5.60;99.90
10828;DHT22;5467;59.334;13.512;2023-03-12T02:54:04;-5.60;99.90
10828;DHT22;5467;59.334;13.512;2023-03-12T02:56:31;-5.70;99.90
10828;DHT22;5467;59.334;13.512;2023-03-12T02:59:00;-5.80;99.90
10828;DHT22;5467;59.334;13.512;2023-03-12T03:01:27;-5.80;99.90
10828;DHT22;5467;59.334;13.512;2023-03-12T03:03:54;-5.80;99.90
10828;DHT22;5467;59.334;13.512;2023-03-12T03:06:21;-5.80;99.90
10828;DHT22;5467;59.334;13.512;2023-03-12T03:08:48;-5.70;99.90
10828;DHT22;5467;59.334;13.512;2023-03-12T03:11:15;-5.70;99.90
10828;DHT22;5467;59.334;13.512;2023-03-12T03:13:43;-5.90;99.90
10828;DHT22;5467;59.334;13.512;2023-03-12T03:16:12;-5.90;99.90
10828;DHT22;5467;59.334;13.512;2023-03-12T03:18:39;-6.10;99.90
10828;DHT22;5467;59.334;13.512;2023-03-12T03:21:08;-6.10;99.90
10828;DHT22;5467;59.334;13.512;2023-03-12T03:23:39;-6.00;99.90
10828;DHT22;5467;59.334;13.512;2023-03-12T03:26:06;-6.00;99.90
10828;DHT22;5467;59.334;13.512;2023-03-12T03:28:33;-6.10;99.90
10828;DHT22;5467;59.334;13.512;2023-03-12T03:31:00;-6.10;99.90
10828;DHT22;5467;59.334;13.512;2023-03-12T03:33:29;-6.10;99.90
10828;DHT22;5467;59.334;13.512;2023-03-12T03:35:58;-6.00;99.90
10828;DHT22;5467;59.334;13.512;2023-03-12T03:38:26;-6.00;99.90
10828;DHT22;5467;59.334;13.512;2023-03-12T03:40:54;-6.00;99.90
10828;DHT22;5467;59.334;13.512;2023-03-12T03:43:21;-6.00;99.90
10828;DHT22;5467;59.334;13.512;2023-03-12T03:45:56;-6.10;99.90
10828;DHT22;5467;59.334;13.512;2023-03-12T03:48:23;-6.20;99.90
10828;DHT22;5467;59.334;13.512;2023-03-12T03:50:52;-6.40;99.90
10828;DHT22;5467;59.334;13.512;2023-03-12T03:53:19;-6.30;99.90
10828;DHT22;5467;59.334;13.512;2023-03-12T03:55:47;-6.40;99.90
10828;DHT22;5467;59.334;13.512;2023-03-12T03:58:15;-6.40;99.90
10828;DHT22;5467;59.334;13.512;2023-03-12T04:00:43;-6.40;99.90
10828;DHT22;5467;59.334;13.512;2023-03-12T04:03:11;-6.50;99.90
10828;DHT22;5467;59.334;13.512;2023-03-12T04:05:38;-6.50;99.90
10828;DHT22;5467;59.334;13.512;2023-03-12T04:08:11;-6.40;99.90
10828;DHT22;5467;59.334;13.512;2023-03-12T04:10:38;-6.40;99.90
10828;DHT22;5467;59.334;13.512;2023-03-12T04:13:05;-6.40;99.90
10828;DHT22;5467;59.334;13.512;2023-03-12T04:15:32;-6.40;99.90
10828;DHT22;5467;59.334;13.512;2023-03-12T04:18:00;-6.40;99.90
10828;DHT22;5467;59.334;13.512;2023-03-12T04:20:27;-6.30;99.90
10828;DHT22;5467;59.334;13.512;2023-03-12T04:22:54;-6.30;99.90
10828;DHT22;5467;59.334;13.512;2023-03-12T04:25:24;-6.40;99.90
10828;DHT22;5467;59.334;13.512;2023-03-12T04:27:51;-6.40;99.90
10828;DHT22;5467;59.334;13.512;2023-03-12T04:30:18;-6.30;99.90
10828;DHT22;5467;59.334;13.512;2023-03-12T04:32:45;-6.30;99.90
10828;DHT22;5467;59.334;13.512;2023-03-12T04:35:13;-6.40;99.90
10828;DHT22;5467;59.334;13.512;2023-03-12T04:37:40;-6.40;99.90
10828;DHT22;5467;59.334;13.512;2023-03-12T04:40:09;-6.30;99.90
10828;DHT22;5467;59.334;13.512;2023-03-12T04:42:37;-6.20;99.90
10828;DHT22;5467;59.334;13.512;2023-03-12T04:45:06;-6.20;99.90
10828;DHT22;5467;59.334;13.512;2023-03-12T04:47:34;-6.20;99.90
10828;DHT22;5467;59.334;13.512;2023-03-12T04:50:01;-6.20;99.90
10828;DHT22;5467;59.334;13.512;2023-03-12T04:52:28;-6.10;99.90
10828;DHT22;5467;59.334;13.512;2023-03-12T04:54:55;-6.00;99.90
10828;DHT22;5467;59.334;13.512;2023-03-12T04:57:24;-6.10;99.90
10828;DHT22;5467;59.334;13.512;2023-03-12T04:59:52;-6.00;99.90
10828;DHT22;5467;59.334;13.512;2023-03-12T05:02:20;-6.00;99.90
10828;DHT22;5467;59.334;13.512;2023-03-12T05:04:47;-6.00;99.90
10828;DHT22;5467;59.334;13.512;2023-03-12T05:07:14;-6.00;99.90
10828;DHT22;5467;59.334;13.512;2023-03-12T05:09:41;-6.10;99.90
10828;DHT22;5467;59.334;13.512;2023-03-12T05:12:09;-6.00;99.90
10828;DHT22;5467;59.334;13.512;2023-03-12T05:14:36;-6.00;99.90
10828;DHT22;5467;59.334;13.512;2023-03-12T05:17:05;-6.10;99.90
10828;DHT22;5467;59.334;13.512;2023-03-12T05:19:32;-6.00;99.90
10828;DHT22;5467;59.334;13.512;2023-03-12T05:22:00;-6.10;99.90
10828;DHT22;5467;59.334;13.512;2023-03-12T05:24:27;-6.20;99.90
10828;DHT22;5467;59.334;13.512;2023-03-12T05:26:54;-6.20;99.90
10828;DHT22;5467;59.334;13.512;2023-03-12T05:29:21;-6.10;99.90
10828;DHT22;5467;59.334;13.512;2023-03-12T05:31:48;-6.10;99.90
10828;DHT22;5467;59.334;13.512;2023-03-12T05:34:17;-6.10;99.90
10828;DHT22;5467;59.334;13.512;2023-03-12T05:36:45;-6.10;99.90
10828;DHT22;5467;59.334;13.512;2023-03-12T05:39:12;-6.10;99.90
10828;DHT22;5467;59.334;13.512;2023-03-12T05:41:39;-6.10;99.90
10828;DHT22;5467;59.334;13.512;2023-03-12T05:44:08;-6.10;99.90
10828;DHT22;5467;59.334;13.512;2023-03-12T05:46:35;-6.10;99.90
10828;DHT22;5467;59.334;13.512;2023-03-12T05:49:03;-6.10;99.90
10828;DHT22;5467;59.334;13.512;2023-03-12T05:51:32;-6.20;99.90
10828;DHT22;5467;59.334;13.512;2023-03-12T05:53:59;-6.10;99.90
10828;DHT22;5467;59.334;13.512;2023-03-12T05:56:26;-6.10;99.90
10828;DHT22;5467;59.334;13.512;2023-03-12T05:58:53;-6.10;99.90
10828;DHT22;5467;59.334;13.512;2023-03-12T06:01:23;-6.20;99.90
10828;DHT22;5467;59.334;13.512;2023-03-12T06:03:50;-6.20;99.90
10828;DHT22;5467;59.334;13.512;2023-03-12T06:06:17;-6.20;99.90
10828;DHT22;5467;59.334;13.512;2023-03-12T06:08:46;-6.10;99.90
10828;DHT22;5467;59.334;13.512;2023-03-12T06:11:13;-6.20;99.90
10828;DHT22;5467;59.334;13.512;2023-03-12T06:13:41;-6.20;99.90
10828;DHT22;5467;59.334;13.512;2023-03-12T06:16:13;-6.30;99.90
10828;DHT22;5467;59.334;13.512;2023-03-12T06:18:41;-6.20;99.90
10828;DHT22;5467;59.334;13.512;2023-03-12T06:21:10;-6.20;99.90
10828;DHT22;5467;59.334;13.512;2023-03-12T06:23:38;-6.20;99.90
10828;DHT22;5467;59.334;13.512;2023-03-12T06:26:07;-5.40;99.90
10828;DHT22;5467;59.334;13.512;2023-03-12T06:28:34;-6.20;99.90
10828;DHT22;5467;59.334;13.512;2023-03-12T06:31:02;-6.10;99.90
10828;DHT22;5467;59.334;13.512;2023-03-12T06:33:30;-6.00;99.90
10828;DHT22;5467;59.334;13.512;2023-03-12T06:35:58;-5.80;99.90
10828;DHT22;5467;59.334;13.512;2023-03-12T06:38:26;-5.90;99.90
10828;DHT22;5467;59.334;13.512;2023-03-12T06:40:54;-5.90;99.90
10828;DHT22;5467;59.334;13.512;2023-03-12T06:43:23;-5.80;99.90
10828;DHT22;5467;59.334;13.512;2023-03-12T06:45:52;-5.60;99.90
10828;DHT22;5467;59.334;13.512;2023-03-12T06:48:19;-5.60;99.90
10828;DHT22;5467;59.334;13.512;2023-03-12T06:50:47;-5.50;99.90
10828;DHT22;5467;59.334;13.512;2023-03-12T06:53:14;-5.50;99.90
10828;DHT22;5467;59.334;13.512;2023-03-12T06:55:42;-5.50;99.90
10828;DHT22;5467;59.334;13.512;2023-03-12T06:58:10;-5.40;99.90
10828;DHT22;5467;59.334;13.512;2023-03-12T07:00:39;-5.40;99.90
10828;DHT22;5467;59.334;13.512;2023-03-12T07:03:06;-5.40;99.90
10828;DHT22;5467;59.334;13.512;2023-03-12T07:05:34;-5.40;99.90
10828;DHT22;5467;59.334;13.512;2023-03-12T07:08:01;-5.30;99.90
10828;DHT22;5467;59.334;13.512;2023-03-12T07:10:29;-5.30;99.90
10828;DHT22;5467;59.334;13.512;2023-03-12T07:12:56;-5.10;99.90
10828;DHT22;5467;59.334;13.512;2023-03-12T07:15:23;-5.20;99.90
10828;DHT22;5467;59.334;13.512;2023-03-12T07:17:52;-5.20;99.90
10828;DHT22;5467;59.334;13.512;2023-03-12T07:20:19;-5.20;99.90
10828;DHT22;5467;59.334;13.512;2023-03-12T07:22:46;-5.00;99.90
10828;DHT22;5467;59.334;13.512;2023-03-12T07:25:13;-5.00;99.90
10828;DHT22;5467;59.334;13.512;2023-03-12T07:27:40;-4.90;99.90
10828;DHT22;5467;59.334;13.512;2023-03-12T07:30:08;-4.80;99.90
10828;DHT22;5467;59.334;13.512;2023-03-12T07:32:36;-4.90;99.90
10828;DHT22;5467;59.334;13.512;2023-03-12T07:35:05;-4.80;99.90
10828;DHT22;5467;59.334;13.512;2023-03-12T07:37:32;-4.70;99.90
10828;DHT22;5467;59.334;13.512;2023-03-12T07:39:59;-4.60;99.90
10828;DHT22;5467;59.334;13.512;2023-03-12T07:42:26;-4.60;99.90
10828;DHT22;5467;59.334;13.512;2023-03-12T07:44:54;-4.50;99.90
10828;DHT22;5467;59.334;13.512;2023-03-12T07:47:21;-4.40;99.90
10828;DHT22;5467;59.334;13.512;2023-03-12T07:49:49;-4.30;99.90
10828;DHT22;5467;59.334;13.512;2023-03-12T07:52:17;-4.20;99.90
10828;DHT22;5467;59.334;13.512;2023-03-12T07:54:44;-4.20;99.90
10828;DHT22;5467;59.334;13.512;2023-03-12T07:57:12;-4.00;99.90
10828;DHT22;5467;59.334;13.512;2023-03-12T07:59:39;-3.90;99.90
10828;DHT22;5467;59.334;13.512;2023-03-12T08:02:08;-3.70;99.90
10828;DHT22;5467;59.334;13.512;2023-03-12T08:04:35;-3.70;99.90
10828;DHT22;5467;59.334;13.512;2023-03-12T08:07:02;-3.60;99.90
10828;DHT22;5467;59.334;13.512;2023-03-12T08:09:31;-3.40;99.90
10828;DHT22;5467;59.334;13.512;2023-03-12T08:11:59;-3.20;99.90
10828;DHT22;5467;59.334;13.512;2023-03-12T08:14:26;-3.00;99.90
10828;DHT22;5467;59.334;13.512;2023-03-12T08:16:56;-2.80;99.90
10828;DHT22;5467;59.334;13.512;2023-03-12T08:19:23;-2.60;99.90
10828;DHT22;5467;59.334;13.512;2023-03-12T08:21:50;-2.30;99.90
10828;DHT22;5467;59.334;13.512;2023-03-12T08:24:18;-2.20;99.90
10828;DHT22;5467;59.334;13.512;2023-03-12T08:26:47;-1.80;99.90
10828;DHT22;5467;59.334;13.512;2023-03-12T08:29:15;-1.60;99.90
10828;DHT22;5467;59.334;13.512;2023-03-12T08:31:42;-1.60;99.90
10828;DHT22;5467;59.334;13.512;2023-03-12T08:34:09;-1.50;99.90
10828;DHT22;5467;59.334;13.512;2023-03-12T08:36:37;-1.30;99.90
10828;DHT22;5467;59.334;13.512;2023-03-12T08:39:04;-0.90;99.90
10828;DHT22;5467;59.334;13.512;2023-03-12T08:41:31;-0.70;99.90
10828;DHT22;5467;59.334;13.512;2023-03-12T08:44:00;-0.60;99.90
10828;DHT22;5467;59.334;13.512;2023-03-12T08:46:27;-0.60;99.90
10828;DHT22;5467;59.334;13.512;2023-03-12T08:48:54;-0.90;99.90
10828;DHT22;5467;59.334;13.512;2023-03-12T08:51:21;-0.90;99.90
10828;DHT22;5467;59.334;13.512;2023-03-12T08:53:48;-0.90;99.90
10828;DHT22;5467;59.334;13.512;2023-03-12T08:56:16;-0.90;99.90
10828;DHT22;5467;59.334;13.512;2023-03-12T08:58:43;-0.80;99.90
10828;DHT22;5467;59.334;13.512;2023-03-12T09:01:12;-0.80;99.90
10828;DHT22;5467;59.334;13.512;2023-03-12T09:03:40;-0.80;99.90
10828;DHT22;5467;59.334;13.512;2023-03-12T09:06:08;-0.90;99.90
10828;DHT22;5467;59.334;13.512;2023-03-12T09:08:38;-1.00;99.90
10828;DHT22;5467;59.334;13.512;2023-03-12T09:11:05;-0.80;99.90
10828;DHT22;5467;59.334;13.512;2023-03-12T09:13:32;-0.70;99.90
10828;DHT22;5467;59.334;13.512;2023-03-12T09:16:00;-0.50;99.90
10828;DHT22;5467;59.334;13.512;2023-03-12T09:18:29;-0.50;99.90
10828;DHT22;5467;59.334;13.512;2023-03-12T09:20:56;-0.60;99.90
10828;DHT22;5467;59.334;13.512;2023-03-12T09:23:23;-0.50;99.90
10828;DHT22;5467;59.334;13.512;2023-03-12T09:25:51;-0.70;99.90
10828;DHT22;5467;59.334;13.512;2023-03-12T09:28:19;-0.80;99.90
10828;DHT22;5467;59.334;13.512;2023-03-12T09:30:46;-0.70;99.90
10828;DHT22;5467;59.334;13.512;2023-03-12T09:33:13;-0.80;99.90
10828;DHT22;5467;59.334;13.512;2023-03-12T09:35:42;-0.70;99.90
10828;DHT22;5467;59.334;13.512;2023-03-12T09:38:12;-0.50;99.90
10828;DHT22;5467;59.334;13.512;2023-03-12T09:40:44;-0.30;99.90
10828;DHT22;5467;59.334;13.512;2023-03-12T09:43:20;-0.30;99.90
10828;DHT22;5467;59.334;13.512;2023-03-12T09:45:48;-0.40;99.90
10828;DHT22;5467;59.334;13.512;2023-03-12T09:48:18;-0.50;99.90
10828;DHT22;5467;59.334;13.512;2023-03-12T09:50:49;-0.50;99.90
10828;DHT22;5467;59.334;13.512;2023-03-12T09:53:24;-0.40;99.90
10828;DHT22;5467;59.334;13.512;2023-03-12T09:55:56;-0.30;99.90
10828;DHT22;5467;59.334;13.512;2023-03-12T09:58:26;-0.20;99.90
10828;DHT22;5467;59.334;13.512;2023-03-12T10:00:59;-0.10;99.90
10828;DHT22;5467;59.334;13.512;2023-03-12T10:03:50;0.20;99.90
10828;DHT22;5467;59.334;13.512;2023-03-12T10:06:24;0.30;99.90
10828;DHT22;5467;59.334;13.512;2023-03-12T10:09:03;0.40;99.90
10828;DHT22;5467;59.334;13.512;2023-03-12T10:11:41;0.50;99.90
10828;DHT22;5467;59.334;13.512;2023-03-12T10:14:24;0.30;99.90
10828;DHT22;5467;59.334;13.512;2023-03-12T10:17:07;0.20;99.90
10828;DHT22;5467;59.334;13.512;2023-03-12T10:19:58;0.30;99.90
10828;DHT22;5467;59.334;13.512;2023-03-12T10:22:43;0.40;99.90
10828;DHT22;5467;59.334;13.512;2023-03-12T10:25:17;0.50;99.90
10828;DHT22;5467;59.334;13.512;2023-03-12T10:27:47;0.30;99.90
10828;DHT22;5467;59.334;13.512;2023-03-12T10:30:17;0.20;99.90
10828;DHT22;5467;59.334;13.512;2023-03-12T10:32:47;0.20;99.90
10828;DHT22;5467;59.334;13.512;2023-03-12T10:35:16;0.50;99.90
10828;DHT22;5467;59.334;13.512;2023-03-12T10:37:47;0.60;99.90
10828;DHT22;5467;59.334;13.512;2023-03-12T10:40:18;0.70;99.90
10828;DHT22;5467;59.334;13.512;2023-03-12T10:42:45;0.90;99.90
10828;DHT22;5467;59.334;13.512;2023-03-12T10:45:23;0.90;99.90
10828;DHT22;5467;59.334;13.512;2023-03-12T10:47:53;0.90;99.90
10828;DHT22;5467;59.334;13.512;2023-03-12T10:50:23;0.70;99.90
10828;DHT22;5467;59.334;13.512;2023-03-12T10:53:11;0.90;99.90
10828;DHT22;5467;59.334;13.512;2023-03-12T10:55:38;1.10;99.90
10828;DHT22;5467;59.334;13.512;2023-03-12T10:58:06;1.30;99.90
10828;DHT22;5467;59.334;13.512;2023-03-12T11:00:33;1.30;99.90
10828;DHT22;5467;59.334;13.512;2023-03-12T11:03:02;1.30;99.90
10828;DHT22;5467;59.334;13.512;2023-03-12T11:05:31;1.20;99.90
10828;DHT22;5467;59.334;13.512;2023-03-12T11:08:01;1.00;99.90
10828;DHT22;5467;59.334;13.512;2023-03-12T11:10:41;1.00;99.90
10828;DHT22;5467;59.334;13.512;2023-03-12T11:13:27;1.00;99.90
10828;DHT22;5467;59.334;13.512;2023-03-12T11:15:55;1.10;99.90
10828;DHT22;5467;59.334;13.512;2023-03-12T11:18:26;1.30;99.90
10828;DHT22;5467;59.334;13.512;2023-03-12T11:20:55;1.20;99.90
10828;DHT22;5467;59.334;13.512;2023-03-12T11:23:27;1.10;99.90
10828;DHT22;5467;59.334;13.512;2023-03-12T11:25:57;1.40;99.90
10828;DHT22;5467;59.334;13.512;2023-03-12T11:28:34;1.40;99.90
10828;DHT22;5467;59.334;13.512;2023-03-12T11:31:02;1.30;99.90
10828;DHT22;5467;59.334;13.512;2023-03-12T11:33:31;1.30;99.90
10828;DHT22;5467;59.334;13.512;2023-03-12T11:36:18;1.40;99.90
10828;DHT22;5467;59.334;13.512;2023-03-12T11:38:53;1.40;99.90
10828;DHT22;5467;59.334;13.512;2023-03-12T11:41:32;1.50;99.90
10828;DHT22;5467;59.334;13.512;2023-03-12T11:44:18;1.70;99.90
10828;DHT22;5467;59.334;13.512;2023-03-12T11:47:01;2.00;99.90
10828;DHT22;5467;59.334;13.512;2023-03-12T11:52:21;2.00;99.90
10828;DHT22;5467;59.334;13.512;2023-03-12T11:55:15;1.90;99.90
10828;DHT22;5467;59.334;13.512;2023-03-12T11:57:50;1.90;99.90
10828;DHT22;5467;59.334;13.512;2023-03-12T12:00:25;2.10;99.90
10828;DHT22;5467;59.334;13.512;2023-03-12T12:03:18;2.40;99.90
10828;DHT22;5467;59.334;13.512;2023-03-12T12:05:56;2.30;99.90
10828;DHT22;5467;59.334;13.512;2023-03-12T12:08:48;2.10;99.90
10828;DHT22;5467;59.334;13.512;2023-03-12T12:11:24;2.10;99.90
10828;DHT22;5467;59.334;13.512;2023-03-12T12:14:02;1.90;99.90
10828;DHT22;5467;59.334;13.512;2023-03-12T12:16:45;2.10;99.90
10828;DHT22;5467;59.334;13.512;2023-03-12T12:19:24;2.20;99.90
10828;DHT22;5467;59.334;13.512;2023-03-12T12:22:02;1.90;99.90
10828;DHT22;5467;59.334;13.512;2023-03-12T12:24:40;2.00;99.90
10828;DHT22;5467;59.334;13.512;2023-03-12T12:27:18;2.10;99.90
10828;DHT22;5467;59.334;13.512;2023-03-12T12:30:08;2.00;99.90
10828;DHT22;5467;59.334;13.512;2023-03-12T12:32:53;2.00;99.90
10828;DHT22;5467;59.334;13.512;2023-03-12T12:35:28;2.00;99.90
10828;DHT22;5467;59.334;13.512;2023-03-12T12:38:00;2.10;99.90
10828;DHT22;5467;59.334;13.512;2023-03-12T12:40:30;2.00;99.90
10828;DHT22;5467;59.334;13.512;2023-03-12T12:43:15;2.00;99.90
10828;DHT22;5467;59.334;13.512;2023-03-12T12:45:46;1.90;99.90
10828;DHT22;5467;59.334;13.512;2023-03-12T12:48:17;1.80;99.90
10828;DHT22;5467;59.334;13.512;2023-03-12T12:50:46;1.80;99.90
10828;DHT22;5467;59.334;13.512;2023-03-12T12:53:21;1.70;99.90
10828;DHT22;5467;59.334;13.512;2023-03-12T12:55:59;1.60;99.90
10828;DHT22;5467;59.334;13.512;2023-03-12T12:58:42;1.50;99.90
10828;DHT22;5467;59.334;13.512;2023-03-12T13:01:11;1.40;99.90
10828;DHT22;5467;59.334;13.512;2023-03-12T13:03:40;1.40;99.90
10828;DHT22;5467;59.334;13.512;2023-03-12T13:06:08;1.60;99.90
10828;DHT22;5467;59.334;13.512;2023-03-12T13:08:58;1.50;99.90
10828;DHT22;5467;59.334;13.512;2023-03-12T13:11:28;1.50;99.90
10828;DHT22;5467;59.334;13.512;2023-03-12T13:14:17;1.50;99.90
10828;DHT22;5467;59.334;13.512;2023-03-12T13:16:45;1.60;99.90
10828;DHT22;5467;59.334;13.512;2023-03-12T13:19:24;1.50;99.90
10828;DHT22;5467;59.334;13.512;2023-03-12T13:22:06;1.60;99.90
10828;DHT22;5467;59.334;13.512;2023-03-12T13:24:42;1.60;99.90
10828;DHT22;5467;59.334;13.512;2023-03-12T13:27:16;1.70;99.90
10828;DHT22;5467;59.334;13.512;2023-03-12T13:29:46;1.80;99.90
10828;DHT22;5467;59.334;13.512;2023-03-12T13:33:02;1.80;99.90
10828;DHT22;5467;59.334;13.512;2023-03-12T13:35:35;1.90;99.90
10828;DHT22;5467;59.334;13.512;2023-03-12T13:38:04;1.70;99.90
10828;DHT22;5467;59.334;13.512;2023-03-12T13:40:38;1.50;99.90
10828;DHT22;5467;59.334;13.512;2023-03-12T13:43:11;1.60;99.90
10828;DHT22;5467;59.334;13.512;2023-03-12T13:45:59;1.40;99.90
10828;DHT22;5467;59.334;13.512;2023-03-12T13:48:27;1.40;99.90
10828;DHT22;5467;59.334;13.512;2023-03-12T13:50:56;1.50;99.90
10828;DHT22;5467;59.334;13.512;2023-03-12T13:53:26;1.70;99.90
10828;DHT22;5467;59.334;13.512;2023-03-12T13:56:00;1.70;99.90
10828;DHT22;5467;59.334;13.512;2023-03-12T13:58:30;1.70;99.90
10828;DHT22;5467;59.334;13.512;2023-03-12T14:01:01;1.70;99.90
10828;DHT22;5467;59.334;13.512;2023-03-12T14:03:32;1.70;99.90
10828;DHT22;5467;59.334;13.512;2023-03-12T14:06:07;1.60;99.90
10828;DHT22;5467;59.334;13.512;2023-03-12T14:08:55;1.70;99.90
10828;DHT22;5467;59.334;13.512;2023-03-12T14:11:38;1.60;99.90
10828;DHT22;5467;59.334;13.512;2023-03-12T14:17:14;1.70;99.90
10828;DHT22;5467;59.334;13.512;2023-03-12T14:19:46;1.80;99.90
10828;DHT22;5467;59.334;13.512;2023-03-12T14:22:14;1.50;99.90
10828;DHT22;5467;59.334;13.512;2023-03-12T14:24:49;1.60;99.90
10828;DHT22;5467;59.334;13.512;2023-03-12T14:27:19;1.60;99.90
10828;DHT22;5467;59.334;13.512;2023-03-12T14:29:52;1.50;99.90
10828;DHT22;5467;59.334;13.512;2023-03-12T14:32:25;1.60;99.90
10828;DHT22;5467;59.334;13.512;2023-03-12T14:34:57;1.60;99.90
10828;DHT22;5467;59.334;13.512;2023-03-12T14:37:31;1.70;99.90
10828;DHT22;5467;59.334;13.512;2023-03-12T14:40:06;1.60;99.90
10828;DHT22;5467;59.334;13.512;2023-03-12T14:42:35;1.50;99.90
10828;DHT22;5467;59.334;13.512;2023-03-12T14:45:10;1.50;99.90
10828;DHT22;5467;59.334;13.512;2023-03-12T14:47:43;1.40;99.90
10828;DHT22;5467;59.334;13.512;2023-03-12T14:50:16;1.40;99.90
10828;DHT22;5467;59.334;13.512;2023-03-12T14:52:44;1.40;99.90
10828;DHT22;5467;59.334;13.512;2023-03-12T14:55:13;1.50;99.90
10828;DHT22;5467;59.334;13.512;2023-03-12T14:57:42;1.50;99.90
10828;DHT22;5467;59.334;13.512;2023-03-12T15:00:21;1.50;99.90
10828;DHT22;5467;59.334;13.512;2023-03-12T15:02:52;1.60;99.90
10828;DHT22;5467;59.334;13.512;2023-03-12T15:05:20;1.60;99.30
10828;DHT22;5467;59.334;13.512;2023-03-12T15:07:49;1.40;99.90
10828;DHT22;5467;59.334;13.512;2023-03-12T15:10:21;1.40;99.90
10828;DHT22;5467;59.334;13.512;2023-03-12T15:12:50;1.50;99.20
10828;DHT22;5467;59.334;13.512;2023-03-12T15:15:28;1.50;99.30
10828;DHT22;5467;59.334;13.512;2023-03-12T15:18:03;1.50;99.40
10828;DHT22;5467;59.334;13.512;2023-03-12T15:20:31;1.30;98.90
10828;DHT22;5467;59.334;13.512;2023-03-12T15:22:59;1.30;99.60
10828;DHT22;5467;59.334;13.512;2023-03-12T15:25:28;1.50;98.80
10828;DHT22;5467;59.334;13.512;2023-03-12T15:28:04;1.60;98.50
10828;DHT22;5467;59.334;13.512;2023-03-12T15:30:33;1.60;99.00
10828;DHT22;5467;59.334;13.512;2023-03-12T15:33:05;1.60;98.30
10828;DHT22;5467;59.334;13.512;2023-03-12T15:35:33;1.50;97.80
10828;DHT22;5467;59.334;13.512;2023-03-12T15:38:00;1.70;98.90
10828;DHT22;5467;59.334;13.512;2023-03-12T15:40:28;1.70;98.30
10828;DHT22;5467;59.334;13.512;2023-03-12T15:42:57;1.80;99.90
10828;DHT22;5467;59.334;13.512;2023-03-12T15:45:34;1.70;98.20
10828;DHT22;5467;59.334;13.512;2023-03-12T15:48:10;1.70;98.90
10828;DHT22;5467;59.334;13.512;2023-03-12T15:50:41;1.50;99.10
10828;DHT22;5467;59.334;13.512;2023-03-12T15:53:25;1.50;98.00
10828;DHT22;5467;59.334;13.512;2023-03-12T15:55:58;1.50;98.60
10828;DHT22;5467;59.334;13.512;2023-03-12T15:58:28;1.50;98.50
10828;DHT22;5467;59.334;13.512;2023-03-12T16:01:06;1.60;99.00
10828;DHT22;5467;59.334;13.512;2023-03-12T16:03:35;1.60;98.50